sensor_id;sensor_type;location;lat;lon;timestamp;temperature;humidity
27413;DHT22;14871;52.702;5.230;2024-02-14T00:01:17;9.90;99.90
27413;DHT22;14871;52.702;5.230;2024-02-14T00:03:44;10.10;99.90
27413;DHT22;14871;52.702;5.230;2024-02-14T00:06:09;10.10;99.90
27413;DHT22;14871;52.702;5.230;2024-02-14T00:08:37;9.80;99.90
27413;DHT22;14871;52.702;5.230;2024-02-14T00:11:03;10.10;99.90
27413;DHT22;14871;52.702;5.230;2024-02-14T00:13:29;10.10;99.90
27413;DHT22;14871;52.702;5.230;2024-02-14T00:15:54;10.10;99.90
27413;DHT22;14871;52.702;5.230;2024-02-14T00:18:22;10.10;99.90
27413;DHT22;14871;52.702;5.230;2024-02-14T00:20:48;10.20;99.90
27413;DHT22;14871;52.702;5.230;2024-02-14T00:23:14;10.20;99.90
27413;DHT22;14871;52.702;5.230;2024-02-14T00:25:39;10.30;99.90
27413;DHT22;14871;52.702;5.230;2024-02-14T00:28:05;10.30;99.90
27413;DHT22;14871;52.702;5.230;2024-02-14T00:30:31;10.20;99.90
27413;DHT22;14871;52.702;5.230;2024-02-14T00:32:57;10.20;99.90
27413;DHT22;14871;52.702;5.230;2024-02-14T00:35:23;10.30;99.90
27413;DHT22;14871;52.702;5.230;2024-02-14T00:37:49;10.20;99.90
27413;DHT22;14871;52.702;5.230;2024-02-14T00:40:14;10.20;99.90
27413;DHT22;14871;52.702;5.230;2024-02-14T00:42:40;10.20;99.90
27413;DHT22;14871;52.702;5.230;2024-02-14T00:45:06;10.10;99.90
27413;DHT22;14871;52.702;5.230;2024-02-14T00:47:34;10.30;99.90
27413;DHT22;14871;52.702;5.230;2024-02-14T00:50:00;10.10;99.90
27413;DHT22;14871;52.702;5.230;2024-02-14T00:52:26;10.20;99.90
27413;DHT22;14871;52.702;5.230;2024-02-14T00:54:52;10.30;99.90
27413;DHT22;14871;52.702;5.230;2024-02-14T00:57:17;10.20;99.90
27413;DHT22;14871;52.702;5.230;2024-02-14T00:59:44;10.60;99.90
27413;DHT22;14871;52.702;5.230;2024-02-14T01:02:10;10.50;99.90
27413;DHT22;14871;52.702;5.230;2024-02-14T01:04:36;10.10;99.90
27413;DHT22;14871;52.702;5.230;2024-02-14T01:07:03;10.20;99.90
27413;DHT22;14871;52.702;5.230;2024-02-14T01:09:29;10.10;99.90
27413;DHT22;14871;52.702;5.230;2024-02-14T01:11:54;10.30;99.90
27413;DHT22;14871;52.702;5.230;2024-02-14T01:14:20;10.40;99.90
27413;DHT22;14871;52.702;5.230;2024-02-14T01:16:47;10.50;99.90
27413;DHT22;14871;52.702;5.230;2024-02-14T01:19:13;10.30;99.90
27413;DHT22;14871;52.702;5.230;2024-02-14T01:21:39;10.50;99.90
27413;DHT22;14871;52.702;5.230;2024-02-14T01:24:05;10.40;99.90
27413;DHT22;14871;52.702;5.230;2024-02-14T01:26:31;10.40;99.90
27413;DHT22;14871;52.702;5.230;2024-02-14T01:29:00;10.50;99.90
27413;DHT22;14871;52.702;5.230;2024-02-14T01:31:26;10.40;99.90
27413;DHT22;14871;52.702;5.230;2024-02-14T01:33:52;10.50;99.90
27413;DHT22;14871;52.702;5.230;2024-02-14T01:36:18;10.60;99.90
27413;DHT22;14871;52.702;5.230;2024-02-14T01:38:44;10.90;99.90
27413;DHT22;14871;52.702;5.230;2024-02-14T01:41:10;10.70;99.90
27413;DHT22;14871;52.702;5.230;2024-02-14T01:43:36;10.90;99.90
27413;DHT22;14871;52.702;5.230;2024-02-14T01:46:07;10.80;99.90
27413;DHT22;14871;52.702;5.230;2024-02-14T01:48:36;10.90;99.90
27413;DHT22;14871;52.702;5.230;2024-02-14T01:51:03;11.00;99.90
27413;DHT22;14871;52.702;5.230;2024-02-14T01:53:30;10.90;99.90
27413;DHT22;14871;52.702;5.230;2024-02-14T01:56:00;10.80;99.90
27413;DHT22;14871;52.702;5.230;2024-02-14T01:58:26;10.90;99.90
27413;DHT22;14871;52.702;5.230;2024-02-14T02:00:53;10.90;99.90
27413;DHT22;14871;52.702;5.230;2024-02-14T02:03:25;10.90;99.90
27413;DHT22;14871;52.702;5.230;2024-02-14T02:05:55;11.00;99.90
27413;DHT22;14871;52.702;5.230;2024-02-14T02:08:21;11.10;99.90
27413;DHT22;14871;52.702;5.230;2024-02-14T02:10:47;11.20;99.90
27413;DHT22;14871;52.702;5.230;2024-02-14T02:13:13;11.00;99.90
27413;DHT22;14871;52.702;5.230;2024-02-14T02:15:41;11.20;99.90
27413;DHT22;14871;52.702;5.230;2024-02-14T02:18:10;11.20;99.90
27413;DHT22;14871;52.702;5.230;2024-02-14T02:20:36;11.10;99.90
27413;DHT22;14871;52.702;5.230;2024-02-14T02:23:02;11.20;99.90
27413;DHT22;14871;52.702;5.230;2024-02-14T02:25:28;11.40;99.90
27413;DHT22;14871;52.702;5.230;2024-02-14T02:27:53;11.20;99.90
27413;DHT22;14871;52.702;5.230;2024-02-14T02:30:23;11.40;99.90
27413;DHT22;14871;52.702;5.230;2024-02-14T02:32:50;11.50;99.90
27413;DHT22;14871;52.702;5.230;2024-02-14T02:35:18;11.50;99.90
27413;DHT22;14871;52.702;5.230;2024-02-14T02:37:46;11.60;99.90
27413;DHT22;14871;52.702;5.230;2024-02-14T02:40:13;11.60;99.90
27413;DHT22;14871;52.702;5.230;2024-02-14T02:42:40;11.60;99.90
27413;DHT22;14871;52.702;5.230;2024-02-14T02:45:06;11.60;99.90
27413;DHT22;14871;52.702;5.230;2024-02-14T02:47:32;11.70;99.90
27413;DHT22;14871;52.702;5.230;2024-02-14T02:49:58;11.80;99.90
27413;DHT22;14871;52.702;5.230;2024-02-14T02:52:25;11.90;99.90
27413;DHT22;14871;52.702;5.230;2024-02-14T02:54:51;11.70;99.90
27413;DHT22;14871;52.702;5.230;2024-02-14T02:57:18;11.80;99.90
27413;DHT22;14871;52.702;5.230;2024-02-14T02:59:44;11.60;99.90
27413;DHT22;14871;52.702;5.230;2024-02-14T03:02:12;11.70;99.90
27413;DHT22;14871;52.702;5.230;2024-02-14T03:04:39;11.80;99.90
27413;DHT22;14871;52.702;5.230;2024-02-14T03:07:05;11.80;99.90
27413;DHT22;14871;52.702;5.230;2024-02-14T03:09:34;11.80;99.90
27413;DHT22;14871;52.702;5.230;2024-02-14T03:12:03;11.60;99.90
27413;DHT22;14871;52.702;5.230;2024-02-14T03:14:30;11.60;99.90
27413;DHT22;14871;52.702;5.230;2024-02-14T03:16:59;11.80;99.90
27413;DHT22;14871;52.702;5.230;2024-02-14T03:19:25;11.80;99.90
27413;DHT22;14871;52.702;5.230;2024-02-14T03:21:55;11.50;99.90
27413;DHT22;14871;52.702;5.230;2024-02-14T03:24:22;11.60;99.90
27413;DHT22;14871;52.702;5.230;2024-02-14T03:26:47;11.80;99.90
27413;DHT22;14871;52.702;5.230;2024-02-14T03:29:13;11.60;99.90
27413;DHT22;14871;52.702;5.230;2024-02-14T03:31:39;11.60;99.90
27413;DHT22;14871;52.702;5.230;2024-02-14T03:34:04;11.60;99.90
27413;DHT22;14871;52.702;5.230;2024-02-14T03:36:30;11.60;99.90
27413;DHT22;14871;52.702;5.230;2024-02-14T03:39:00;11.60;99.90
27413;DHT22;14871;52.702;5.230;2024-02-14T03:41:29;11.70;99.90
27413;DHT22;14871;52.702;5.230;2024-02-14T03:43:55;11.70;99.90
27413;DHT22;14871;52.702;5.230;2024-02-14T03:46:24;11.90;99.90
27413;DHT22;14871;52.702;5.230;2024-02-14T03:48:50;11.80;99.90
27413;DHT22;14871;52.702;5.230;2024-02-14T03:51:15;11.80;99.90
27413;DHT22;14871;52.702;5.230;2024-02-14T03:53:41;11.70;99.90
27413;DHT22;14871;52.702;5.230;2024-02-14T03:56:07;11.80;99.90
27413;DHT22;14871;52.702;5.230;2024-02-14T03:58:33;11.90;99.90
27413;DHT22;14871;52.702;5.230;2024-02-14T04:01:03;11.80;99.90
27413;DHT22;14871;52.702;5.230;2024-02-14T04:03:28;12.00;99.90
27413;DHT22;14871;52.702;5.230;2024-02-14T04:05:55;11.90;99.90
27413;DHT22;14871;52.702;5.230;2024-02-14T04:08:20;12.00;99.90
27413;DHT22;14871;52.702;5.230;2024-02-14T04:10:47;11.90;99.90
27413;DHT22;14871;52.702;5.230;2024-02-14T04:13:16;11.90;99.90
27413;DHT22;14871;52.702;5.230;2024-02-14T04:15:41;11.90;99.90
27413;DHT22;14871;52.702;5.230;2024-02-14T04:18:08;12.00;99.90
27413;DHT22;14871;52.702;5.230;2024-02-14T04:20:34;12.00;99.90
27413;DHT22;14871;52.702;5.230;2024-02-14T04:23:00;11.90;99.90
27413;DHT22;14871;52.702;5.230;2024-02-14T04:25:26;12.10;99.90
27413;DHT22;14871;52.702;5.230;2024-02-14T04:27:51;12.00;99.90
27413;DHT22;14871;52.702;5.230;2024-02-14T04:30:17;11.90;99.90
27413;DHT22;14871;52.702;5.230;2024-02-14T04:32:43;11.90;99.90
27413;DHT22;14871;52.702;5.230;2024-02-14T04:35:09;11.90;99.90
27413;DHT22;14871;52.702;5.230;2024-02-14T04:37:35;11.90;99.90
27413;DHT22;14871;52.702;5.230;2024-02-14T04:40:02;11.90;99.90
27413;DHT22;14871;52.702;5.230;2024-02-14T04:42:29;11.90;99.90
27413;DHT22;14871;52.702;5.230;2024-02-14T04:44:55;11.90;99.90
27413;DHT22;14871;52.702;5.230;2024-02-14T04:47:21;12.00;99.90
27413;DHT22;14871;52.702;5.230;2024-02-14T04:49:47;11.90;99.90
27413;DHT22;14871;52.702;5.230;2024-02-14T04:52:12;11.90;99.90
27413;DHT22;14871;52.702;5.230;2024-02-14T04:54:38;11.80;99.90
27413;DHT22;14871;52.702;5.230;2024-02-14T04:57:03;11.90;99.90
27413;DHT22;14871;52.702;5.230;2024-02-14T04:59:30;12.10;99.90
27413;DHT22;14871;52.702;5.230;2024-02-14T05:01:56;12.10;99.90
27413;DHT22;14871;52.702;5.230;2024-02-14T05:04:22;12.20;99.90
27413;DHT22;14871;52.702;5.230;2024-02-14T05:06:48;12.00;99.90
27413;DHT22;14871;52.702;5.230;2024-02-14T05:09:15;12.00;99.90
27413;DHT22;14871;52.702;5.230;2024-02-14T05:11:41;12.20;99.90
27413;DHT22;14871;52.702;5.230;2024-02-14T05:14:07;12.20;99.90
27413;DHT22;14871;52.702;5.230;2024-02-14T05:16:32;12.00;99.90
27413;DHT22;14871;52.702;5.230;2024-02-14T05:18:58;12.20;99.90
27413;DHT22;14871;52.702;5.230;2024-02-14T05:21:24;12.10;99.90
27413;DHT22;14871;52.702;5.230;2024-02-14T05:23:49;12.20;99.90
27413;DHT22;14871;52.702;5.230;2024-02-14T05:26:16;12.30;99.90
27413;DHT22;14871;52.702;5.230;2024-02-14T05:28:41;12.30;99.90
27413;DHT22;14871;52.702;5.230;2024-02-14T05:31:07;12.10;99.90
27413;DHT22;14871;52.702;5.230;2024-02-14T05:33:33;12.20;99.90
27413;DHT22;14871;52.702;5.230;2024-02-14T05:35:58;12.20;99.90
27413;DHT22;14871;52.702;5.230;2024-02-14T05:38:24;12.10;99.90
27413;DHT22;14871;52.702;5.230;2024-02-14T05:40:50;12.10;99.90
27413;DHT22;14871;52.702;5.230;2024-02-14T05:43:16;12.10;99.90
27413;DHT22;14871;52.702;5.230;2024-02-14T05:45:43;12.00;99.90
27413;DHT22;14871;52.702;5.230;2024-02-14T05:48:09;12.10;99.90
27413;DHT22;14871;52.702;5.230;2024-02-14T05:50:34;12.30;99.90
27413;DHT22;14871;52.702;5.230;2024-02-14T05:53:00;12.30;99.90
27413;DHT22;14871;52.702;5.230;2024-02-14T05:55:26;12.20;99.90
27413;DHT22;14871;52.702;5.230;2024-02-14T05:57:52;12.30;99.90
27413;DHT22;14871;52.702;5.230;2024-02-14T06:00:19;12.30;99.90
27413;DHT22;14871;52.702;5.230;2024-02-14T06:02:46;12.20;99.90
27413;DHT22;14871;52.702;5.230;2024-02-14T06:05:13;12.20;99.90
27413;DHT22;14871;52.702;5.230;2024-02-14T06:07:40;12.30;99.90
27413;DHT22;14871;52.702;5.230;2024-02-14T06:10:07;12.30;99.90
27413;DHT22;14871;52.702;5.230;2024-02-14T06:12:33;12.30;99.90
27413;DHT22;14871;52.702;5.230;2024-02-14T06:14:59;12.30;99.90
27413;DHT22;14871;52.702;5.230;2024-02-14T06:17:25;12.30;99.90
27413;DHT22;14871;52.702;5.230;2024-02-14T06:19:54;12.40;99.90
27413;DHT22;14871;52.702;5.230;2024-02-14T06:22:20;12.40;99.90
27413;DHT22;14871;52.702;5.230;2024-02-14T06:24:47;12.40;99.90
27413;DHT22;14871;52.702;5.230;2024-02-14T06:27:16;12.40;99.90
27413;DHT22;14871;52.702;5.230;2024-02-14T06:29:42;12.10;99.90
27413;DHT22;14871;52.702;5.230;2024-02-14T06:32:08;12.20;99.90
27413;DHT22;14871;52.702;5.230;2024-02-14T06:34:33;12.40;99.90
27413;DHT22;14871;52.702;5.230;2024-02-14T06:36:59;12.40;99.90
27413;DHT22;14871;52.702;5.230;2024-02-14T06:39:25;12.40;99.90
27413;DHT22;14871;52.702;5.230;2024-02-14T06:41:50;12.40;99.90
27413;DHT22;14871;52.702;5.230;2024-02-14T06:44:16;12.50;99.90
27413;DHT22;14871;52.702;5.230;2024-02-14T06:46:41;12.50;99.90
27413;DHT22;14871;52.702;5.230;2024-02-14T06:49:08;12.30;99.90
27413;DHT22;14871;52.702;5.230;2024-02-14T06:51:34;12.40;99.90
27413;DHT22;14871;52.702;5.230;2024-02-14T06:54:00;12.50;99.90
27413;DHT22;14871;52.702;5.230;2024-02-14T06:56:25;12.60;99.90
27413;DHT22;14871;52.702;5.230;2024-02-14T06:58:51;12.50;99.90
27413;DHT22;14871;52.702;5.230;2024-02-14T07:01:19;12.40;99.90
27413;DHT22;14871;52.702;5.230;2024-02-14T07:03:48;12.50;99.90
27413;DHT22;14871;52.702;5.230;2024-02-14T07:06:14;12.60;99.90
27413;DHT22;14871;52.702;5.230;2024-02-14T07:08:43;12.80;99.90
27413;DHT22;14871;52.702;5.230;2024-02-14T07:11:09;12.70;99.90
27413;DHT22;14871;52.702;5.230;2024-02-14T07:13:34;12.60;99.90
27413;DHT22;14871;52.702;5.230;2024-02-14T07:16:00;12.50;99.90
27413;DHT22;14871;52.702;5.230;2024-02-14T07:18:26;12.60;99.90
27413;DHT22;14871;52.702;5.230;2024-02-14T07:20:52;12.70;99.90
27413;DHT22;14871;52.702;5.230;2024-02-14T07:23:18;12.60;99.90
27413;DHT22;14871;52.702;5.230;2024-02-14T07:25:44;12.70;99.90
27413;DHT22;14871;52.702;5.230;2024-02-14T07:28:10;12.50;99.90
27413;DHT22;14871;52.702;5.230;2024-02-14T07:30:36;12.50;99.90
27413;DHT22;14871;52.702;5.230;2024-02-14T07:33:01;12.70;99.90
27413;DHT22;14871;52.702;5.230;2024-02-14T07:35:27;12.70;99.90
27413;DHT22;14871;52.702;5.230;2024-02-14T07:37:54;12.60;99.90
27413;DHT22;14871;52.702;5.230;2024-02-14T07:40:21;12.60;99.90
27413;DHT22;14871;52.702;5.230;2024-02-14T07:42:47;12.80;99.90
27413;DHT22;14871;52.702;5.230;2024-02-14T07:45:13;12.70;99.90
27413;DHT22;14871;52.702;5.230;2024-02-14T07:47:39;12.60;99.90
27413;DHT22;14871;52.702;5.230;2024-02-14T07:50:06;12.70;99.90
27413;DHT22;14871;52.702;5.230;2024-02-14T07:52:32;12.70;99.90
27413;DHT22;14871;52.702;5.230;2024-02-14T07:54:58;12.70;99.90
27413;DHT22;14871;52.702;5.230;2024-02-14T07:57:23;12.70;99.90
27413;DHT22;14871;52.702;5.230;2024-02-14T07:59:50;12.70;99.90
27413;DHT22;14871;52.702;5.230;2024-02-14T08:02:17;12.60;99.90
27413;DHT22;14871;52.702;5.230;2024-02-14T08:04:42;12.80;99.90
27413;DHT22;14871;52.702;5.230;2024-02-14T08:07:09;12.70;99.90
27413;DHT22;14871;52.702;5.230;2024-02-14T08:09:35;12.80;99.90
27413;DHT22;14871;52.702;5.230;2024-02-14T08:12:00;12.80;99.90
27413;DHT22;14871;52.702;5.230;2024-02-14T08:14:26;12.80;99.90
27413;DHT22;14871;52.702;5.230;2024-02-14T08:16:52;12.70;99.90
27413;DHT22;14871;52.702;5.230;2024-02-14T08:19:18;12.60;99.90
27413;DHT22;14871;52.702;5.230;2024-02-14T08:21:44;12.70;99.90
27413;DHT22;14871;52.702;5.230;2024-02-14T08:24:10;12.80;99.90
27413;DHT22;14871;52.702;5.230;2024-02-14T08:26:35;12.80;99.90
27413;DHT22;14871;52.702;5.230;2024-02-14T08:29:01;12.60;99.90
27413;DHT22;14871;52.702;5.230;2024-02-14T08:31:27;12.80;99.90
27413;DHT22;14871;52.702;5.230;2024-02-14T08:33:53;12.70;99.90
27413;DHT22;14871;52.702;5.230;2024-02-14T08:36:22;12.60;99.90
27413;DHT22;14871;52.702;5.230;2024-02-14T08:38:48;12.60;99.90
27413;DHT22;14871;52.702;5.230;2024-02-14T08:41:13;12.50;99.90
27413;DHT22;14871;52.702;5.230;2024-02-14T08:43:39;12.60;99.90
27413;DHT22;14871;52.702;5.230;2024-02-14T08:46:11;12.60;99.90
27413;DHT22;14871;52.702;5.230;2024-02-14T08:48:37;12.70;99.90
27413;DHT22;14871;52.702;5.230;2024-02-14T08:51:07;12.70;99.90
27413;DHT22;14871;52.702;5.230;2024-02-14T08:53:35;12.80;99.90
27413;DHT22;14871;52.702;5.230;2024-02-14T08:56:01;12.50;99.90
27413;DHT22;14871;52.702;5.230;2024-02-14T08:58:27;12.60;99.90
27413;DHT22;14871;52.702;5.230;2024-02-14T09:00:52;12.70;99.90
27413;DHT22;14871;52.702;5.230;2024-02-14T09:03:19;12.70;99.90
27413;DHT22;14871;52.702;5.230;2024-02-14T09:05:45;12.90;99.90
27413;DHT22;14871;52.702;5.230;2024-02-14T09:08:12;12.90;99.90
27413;DHT22;14871;52.702;5.230;2024-02-14T09:10:38;12.70;99.90
27413;DHT22;14871;52.702;5.230;2024-02-14T09:13:04;12.90;99.90
27413;DHT22;14871;52.702;5.230;2024-02-14T09:15:29;12.90;99.90
27413;DHT22;14871;52.702;5.230;2024-02-14T09:17:56;12.90;99.90
27413;DHT22;14871;52.702;5.230;2024-02-14T09:20:22;12.90;99.90
27413;DHT22;14871;52.702;5.230;2024-02-14T09:22:48;12.80;99.90
27413;DHT22;14871;52.702;5.230;2024-02-14T09:25:14;12.80;99.90
27413;DHT22;14871;52.702;5.230;2024-02-14T09:27:40;13.00;99.90
27413;DHT22;14871;52.702;5.230;2024-02-14T09:30:07;12.90;99.90
27413;DHT22;14871;52.702;5.230;2024-02-14T09:32:33;13.00;99.90
27413;DHT22;14871;52.702;5.230;2024-02-14T09:34:59;13.00;99.90
27413;DHT22;14871;52.702;5.230;2024-02-14T09:37:26;13.00;99.90
27413;DHT22;14871;52.702;5.230;2024-02-14T09:39:52;13.00;99.90
27413;DHT22;14871;52.702;5.230;2024-02-14T09:42:23;13.10;99.90
27413;DHT22;14871;52.702;5.230;2024-02-14T09:44:52;13.10;99.90
27413;DHT22;14871;52.702;5.230;2024-02-14T09:47:20;13.00;99.90
27413;DHT22;14871;52.702;5.230;2024-02-14T09:49:46;13.00;99.90
27413;DHT22;14871;52.702;5.230;2024-02-14T09:52:13;12.90;99.90
27413;DHT22;14871;52.702;5.230;2024-02-14T09:54:40;12.90;99.90
27413;DHT22;14871;52.702;5.230;2024-02-14T09:57:06;12.90;99.90
27413;DHT22;14871;52.702;5.230;2024-02-14T09:59:32;13.20;99.90
27413;DHT22;14871;52.702;5.230;2024-02-14T10:01:58;13.00;99.90
27413;DHT22;14871;52.702;5.230;2024-02-14T10:04:24;13.00;99.90
27413;DHT22;14871;52.702;5.230;2024-02-14T10:06:51;12.90;99.90
27413;DHT22;14871;52.702;5.230;2024-02-14T10:09:25;12.90;99.90
27413;DHT22;14871;52.702;5.230;2024-02-14T10:11:51;12.90;99.90
27413;DHT22;14871;52.702;5.230;2024-02-14T10:14:16;13.10;99.90
27413;DHT22;14871;52.702;5.230;2024-02-14T10:16:42;13.00;99.90
27413;DHT22;14871;52.702;5.230;2024-02-14T10:19:15;12.90;99.90
27413;DHT22;14871;52.702;5.230;2024-02-14T10:21:41;13.00;99.90
27413;DHT22;14871;52.702;5.230;2024-02-14T10:24:07;13.10;99.90
27413;DHT22;14871;52.702;5.230;2024-02-14T10:26:34;13.20;99.90
27413;DHT22;14871;52.702;5.230;2024-02-14T10:29:01;13.20;99.90
27413;DHT22;14871;52.702;5.230;2024-02-14T10:31:27;13.30;99.90
27413;DHT22;14871;52.702;5.230;2024-02-14T10:33:56;13.30;99.90
27413;DHT22;14871;52.702;5.230;2024-02-14T10:36:22;13.20;99.90
27413;DHT22;14871;52.702;5.230;2024-02-14T10:38:50;13.10;99.90
27413;DHT22;14871;52.702;5.230;2024-02-14T10:41:18;13.20;99.90
27413;DHT22;14871;52.702;5.230;2024-02-14T10:43:44;13.20;99.90
27413;DHT22;14871;52.702;5.230;2024-02-14T10:46:22;13.30;99.90
27413;DHT22;14871;52.702;5.230;2024-02-14T10:48:53;13.20;99.90
27413;DHT22;14871;52.702;5.230;2024-02-14T10:51:23;13.40;99.90
27413;DHT22;14871;52.702;5.230;2024-02-14T10:53:52;13.40;99.90
27413;DHT22;14871;52.702;5.230;2024-02-14T10:56:18;13.50;99.90
27413;DHT22;14871;52.702;5.230;2024-02-14T10:58:47;13.50;99.90
27413;DHT22;14871;52.702;5.230;2024-02-14T11:01:14;13.30;99.90
27413;DHT22;14871;52.702;5.230;2024-02-14T11:03:42;13.50;99.90
27413;DHT22;14871;52.702;5.230;2024-02-14T11:06:08;13.40;99.90
27413;DHT22;14871;52.702;5.230;2024-02-14T11:08:33;13.40;99.90
27413;DHT22;14871;52.702;5.230;2024-02-14T11:11:00;13.30;99.90
27413;DHT22;14871;52.702;5.230;2024-02-14T11:13:28;13.20;99.90
27413;DHT22;14871;52.702;5.230;2024-02-14T11:15:53;13.20;99.90
27413;DHT22;14871;52.702;5.230;2024-02-14T11:18:28;13.30;99.90
27413;DHT22;14871;52.702;5.230;2024-02-14T11:20:58;13.30;99.90
27413;DHT22;14871;52.702;5.230;2024-02-14T11:23:24;13.40;99.90
27413;DHT22;14871;52.702;5.230;2024-02-14T11:26:02;13.50;99.90
27413;DHT22;14871;52.702;5.230;2024-02-14T11:28:28;13.30;99.90
27413;DHT22;14871;52.702;5.230;2024-02-14T11:31:00;13.20;99.90
27413;DHT22;14871;52.702;5.230;2024-02-14T11:33:26;13.30;99.90
27413;DHT22;14871;52.702;5.230;2024-02-14T11:35:53;13.30;99.90
27413;DHT22;14871;52.702;5.230;2024-02-14T11:38:20;13.30;99.90
27413;DHT22;14871;52.702;5.230;2024-02-14T11:40:46;13.40;99.90
27413;DHT22;14871;52.702;5.230;2024-02-14T11:43:16;13.40;99.90
27413;DHT22;14871;52.702;5.230;2024-02-14T11:45:48;13.30;99.90
27413;DHT22;14871;52.702;5.230;2024-02-14T11:48:20;13.20;99.90
27413;DHT22;14871;52.702;5.230;2024-02-14T11:50:46;13.30;99.90
27413;DHT22;14871;52.702;5.230;2024-02-14T11:53:16;13.40;99.90
27413;DHT22;14871;52.702;5.230;2024-02-14T11:55:43;13.30;99.90
27413;DHT22;14871;52.702;5.230;2024-02-14T11:58:10;13.30;99.90
27413;DHT22;14871;52.702;5.230;2024-02-14T12:00:46;13.30;99.90
27413;DHT22;14871;52.702;5.230;2024-02-14T12:03:23;13.40;99.90
27413;DHT22;14871;52.702;5.230;2024-02-14T12:05:52;13.40;99.90
27413;DHT22;14871;52.702;5.230;2024-02-14T12:08:18;13.40;99.90
27413;DHT22;14871;52.702;5.230;2024-02-14T12:10:45;13.50;99.90
27413;DHT22;14871;52.702;5.230;2024-02-14T12:13:17;13.50;99.90
27413;DHT22;14871;52.702;5.230;2024-02-14T12:15:46;13.50;99.90
27413;DHT22;14871;52.702;5.230;2024-02-14T12:18:13;13.30;99.90
27413;DHT22;14871;52.702;5.230;2024-02-14T12:20:42;13.50;99.90
27413;DHT22;14871;52.702;5.230;2024-02-14T12:23:15;13.50;99.90
27413;DHT22;14871;52.702;5.230;2024-02-14T12:25:44;13.40;99.90
27413;DHT22;14871;52.702;5.230;2024-02-14T12:28:18;13.40;99.90
27413;DHT22;14871;52.702;5.230;2024-02-14T12:30:46;13.60;99.90
27413;DHT22;14871;52.702;5.230;2024-02-14T12:33:15;13.40;99.90
27413;DHT22;14871;52.702;5.230;2024-02-14T12:35:46;13.40;99.90
27413;DHT22;14871;52.702;5.230;2024-02-14T12:38:13;13.40;99.90
27413;DHT22;14871;52.702;5.230;2024-02-14T12:40:39;13.50;99.90
27413;DHT22;14871;52.702;5.230;2024-02-14T12:43:10;13.50;99.90
27413;DHT22;14871;52.702;5.230;2024-02-14T12:45:39;13.40;99.90
27413;DHT22;14871;52.702;5.230;2024-02-14T12:48:06;13.50;99.90
27413;DHT22;14871;52.702;5.230;2024-02-14T12:50:34;13.50;99.90
27413;DHT22;14871;52.702;5.230;2024-02-14T12:53:04;13.40;99.90
27413;DHT22;14871;52.702;5.230;2024-02-14T12:55:29;13.50;99.90
27413;DHT22;14871;52.702;5.230;2024-02-14T12:57:56;13.50;99.90
27413;DHT22;14871;52.702;5.230;2024-02-14T13:00:22;13.20;99.90
27413;DHT22;14871;52.702;5.230;2024-02-14T13:02:48;13.40;99.90
27413;DHT22;14871;52.702;5.230;2024-02-14T13:05:14;13.30;99.90
27413;DHT22;14871;52.702;5.230;2024-02-14T13:07:41;13.30;99.90
27413;DHT22;14871;52.702;5.230;2024-02-14T13:10:07;13.30;99.90
27413;DHT22;14871;52.702;5.230;2024-02-14T13:12:37;13.50;99.90
27413;DHT22;14871;52.702;5.230;2024-02-14T13:15:04;13.50;99.90
27413;DHT22;14871;52.702;5.230;2024-02-14T13:17:30;13.70;99.90
27413;DHT22;14871;52.702;5.230;2024-02-14T13:19:56;13.70;99.90
27413;DHT22;14871;52.702;5.230;2024-02-14T13:22:22;13.70;99.90
27413;DHT22;14871;52.702;5.230;2024-02-14T13:24:48;13.70;99.90
27413;DHT22;14871;52.702;5.230;2024-02-14T13:27:14;13.40;99.90
27413;DHT22;14871;52.702;5.230;2024-02-14T13:29:40;13.40;99.90
27413;DHT22;14871;52.702;5.230;2024-02-14T13:32:06;13.30;99.90
27413;DHT22;14871;52.702;5.230;2024-02-14T13:34:33;13.50;99.90
27413;DHT22;14871;52.702;5.230;2024-02-14T13:36:59;13.50;99.90
27413;DHT22;14871;52.702;5.230;2024-02-14T13:39:25;13.50;99.90
27413;DHT22;14871;52.702;5.230;2024-02-14T13:41:50;13.50;99.90
27413;DHT22;14871;52.702;5.230;2024-02-14T13:44:17;13.50;99.90
27413;DHT22;14871;52.702;5.230;2024-02-14T13:46:45;13.70;99.90
27413;DHT22;14871;52.702;5.230;2024-02-14T13:49:15;13.70;99.90
27413;DHT22;14871;52.702;5.230;2024-02-14T13:51:43;13.70;99.90
27413;DHT22;14871;52.702;5.230;2024-02-14T13:54:08;13.90;99.90
27413;DHT22;14871;52.702;5.230;2024-02-14T13:56:35;13.90;99.90
27413;DHT22;14871;52.702;5.230;2024-02-14T13:59:01;13.70;99.90
27413;DHT22;14871;52.702;5.230;2024-02-14T14:01:26;13.70;99.90
27413;DHT22;14871;52.702;5.230;2024-02-14T14:03:52;13.70;99.90
27413;DHT22;14871;52.702;5.230;2024-02-14T14:06:20;13.90;99.90
27413;DHT22;14871;52.702;5.230;2024-02-14T14:08:46;13.70;99.90
27413;DHT22;14871;52.702;5.230;2024-02-14T14:11:12;13.70;99.90
27413;DHT22;14871;52.702;5.230;2024-02-14T14:13:37;13.70;99.90
27413;DHT22;14871;52.702;5.230;2024-02-14T14:16:03;13.90;99.90
27413;DHT22;14871;52.702;5.230;2024-02-14T14:18:32;13.70;99.90
27413;DHT22;14871;52.702;5.230;2024-02-14T14:20:58;13.80;99.90
27413;DHT22;14871;52.702;5.230;2024-02-14T14:23:23;13.80;99.90
27413;DHT22;14871;52.702;5.230;2024-02-14T14:25:49;13.80;99.90
27413;DHT22;14871;52.702;5.230;2024-02-14T14:28:15;13.70;99.90
27413;DHT22;14871;52.702;5.230;2024-02-14T14:30:41;13.70;99.90
27413;DHT22;14871;52.702;5.230;2024-02-14T14:33:06;13.70;99.90
27413;DHT22;14871;52.702;5.230;2024-02-14T14:35:33;13.70;99.90
27413;DHT22;14871;52.702;5.230;2024-02-14T14:37:59;13.60;99.90
27413;DHT22;14871;52.702;5.230;2024-02-14T14:40:25;13.80;99.90
27413;DHT22;14871;52.702;5.230;2024-02-14T14:42:51;13.50;99.90
27413;DHT22;14871;52.702;5.230;2024-02-14T14:45:18;13.60;99.90
27413;DHT22;14871;52.702;5.230;2024-02-14T14:47:44;13.70;99.90
27413;DHT22;14871;52.702;5.230;2024-02-14T14:50:11;13.90;99.90
27413;DHT22;14871;52.702;5.230;2024-02-14T14:52:38;13.80;99.90
27413;DHT22;14871;52.702;5.230;2024-02-14T14:55:05;13.40;99.90
27413;DHT22;14871;52.702;5.230;2024-02-14T14:57:31;13.60;99.90
27413;DHT22;14871;52.702;5.230;2024-02-14T14:59:56;13.50;99.90
27413;DHT22;14871;52.702;5.230;2024-02-14T15:02:22;13.40;99.90
27413;DHT22;14871;52.702;5.230;2024-02-14T15:04:48;13.40;99.90
27413;DHT22;14871;52.702;5.230;2024-02-14T15:07:14;13.50;99.90
27413;DHT22;14871;52.702;5.230;2024-02-14T15:09:41;13.40;99.90
27413;DHT22;14871;52.702;5.230;2024-02-14T15:12:07;13.60;99.90
27413;DHT22;14871;52.702;5.230;2024-02-14T15:14:33;13.40;99.90
27413;DHT22;14871;52.702;5.230;2024-02-14T15:16:59;13.50;99.90
27413;DHT22;14871;52.702;5.230;2024-02-14T15:19:25;13.40;99.90
27413;DHT22;14871;52.702;5.230;2024-02-14T15:21:51;13.50;99.90
27413;DHT22;14871;52.702;5.230;2024-02-14T15:24:16;13.40;99.90
27413;DHT22;14871;52.702;5.230;2024-02-14T15:26:42;13.60;99.90